sensor_id;sensor_type;location;lat;lon;timestamp;temperature;humidity
66373;SHT30;53168;51.146;17.120;2023-05-27T00:01:48;11.03;61.43
66373;SHT30;53168;51.146;17.120;2023-05-27T00:04:22;10.98;61.34
66373;SHT30;53168;51.146;17.120;2023-05-27T00:06:56;10.94;61.40
66373;SHT30;53168;51.146;17.120;2023-05-27T00:09:49;10.87;61.35
66373;SHT30;53168;51.146;17.120;2023-05-27T00:12:25;10.78;61.44
66373;SHT30;53168;51.146;17.120;2023-05-27T00:15:00;10.71;61.70
66373;SHT30;53168;51.146;17.120;2023-05-27T00:17:34;10.66;61.64
66373;SHT30;53168;51.146;17.120;2023-05-27T00:20:11;10.62;61.66
66373;SHT30;53168;51.146;17.120;2023-05-27T00:22:45;10.56;61.91
66373;SHT30;53168;51.146;17.120;2023-05-27T00:25:25;10.51;62.10
66373;SHT30;53168;51.146;17.120;2023-05-27T00:27:59;10.44;62.19
66373;SHT30;53168;51.146;17.120;2023-05-27T00:30:33;10.38;62.39
66373;SHT30;53168;51.146;17.120;2023-05-27T00:33:07;10.33;62.44
66373;SHT30;53168;51.146;17.120;2023-05-27T00:35:42;10.28;62.59
66373;SHT30;53168;51.146;17.120;2023-05-27T00:46:25;10.17;63.38
66373;SHT30;53168;51.146;17.120;2023-05-27T00:49:56;10.19;63.39
66373;SHT30;53168;51.146;17.120;2023-05-27T00:52:31;10.20;63.37
66373;SHT30;53168;51.146;17.120;2023-05-27T00:55:30;10.19;63.57
66373;SHT30;53168;51.146;17.120;2023-05-27T01:01:06;10.18;63.60
66373;SHT30;53168;51.146;17.120;2023-05-27T01:03:48;10.16;63.80
66373;SHT30;53168;51.146;17.120;2023-05-27T01:06:53;10.14;63.94
66373;SHT30;53168;51.146;17.120;2023-05-27T01:09:40;10.11;63.99
66373;SHT30;53168;51.146;17.120;2023-05-27T01:12:54;10.09;63.98
66373;SHT30;53168;51.146;17.120;2023-05-27T01:16:29;10.04;64.22
66373;SHT30;53168;51.146;17.120;2023-05-27T01:31:51;9.92;64.71
66373;SHT30;53168;51.146;17.120;2023-05-27T01:35:02;9.90;64.51
66373;SHT30;53168;51.146;17.120;2023-05-27T01:37:48;9.89;64.51
66373;SHT30;53168;51.146;17.120;2023-05-27T01:40:30;9.86;64.61
66373;SHT30;53168;51.146;17.120;2023-05-27T01:50:10;9.76;64.90
66373;SHT30;53168;51.146;17.120;2023-05-27T01:52:44;9.72;64.98
66373;SHT30;53168;51.146;17.120;2023-05-27T01:55:18;9.67;65.21
66373;SHT30;53168;51.146;17.120;2023-05-27T01:57:52;9.61;65.31
66373;SHT30;53168;51.146;17.120;2023-05-27T02:00:26;9.58;65.42
66373;SHT30;53168;51.146;17.120;2023-05-27T02:03:00;9.55;65.37
66373;SHT30;53168;51.146;17.120;2023-05-27T02:05:35;9.50;65.41
66373;SHT30;53168;51.146;17.120;2023-05-27T02:08:09;9.44;65.37
66373;SHT30;53168;51.146;17.120;2023-05-27T02:10:44;9.40;65.30
66373;SHT30;53168;51.146;17.120;2023-05-27T02:13:27;9.35;65.37
66373;SHT30;53168;51.146;17.120;2023-05-27T02:16:02;9.29;65.48
66373;SHT30;53168;51.146;17.120;2023-05-27T02:18:36;9.22;65.50
66373;SHT30;53168;51.146;17.120;2023-05-27T02:21:11;9.13;65.59
66373;SHT30;53168;51.146;17.120;2023-05-27T02:23:47;9.06;65.97
66373;SHT30;53168;51.146;17.120;2023-05-27T02:26:42;9.02;66.06
66373;SHT30;53168;51.146;17.120;2023-05-27T02:29:16;8.98;66.16
66373;SHT30;53168;51.146;17.120;2023-05-27T02:31:52;8.93;66.45
66373;SHT30;53168;51.146;17.120;2023-05-27T02:34:28;8.91;66.78
66373;SHT30;53168;51.146;17.120;2023-05-27T02:37:03;8.90;66.87
66373;SHT30;53168;51.146;17.120;2023-05-27T02:39:37;8.90;67.14
66373;SHT30;53168;51.146;17.120;2023-05-27T02:42:12;8.89;67.45
66373;SHT30;53168;51.146;17.120;2023-05-27T02:44:47;8.88;67.40
66373;SHT30;53168;51.146;17.120;2023-05-27T02:47:22;8.85;67.34
66373;SHT30;53168;51.146;17.120;2023-05-27T02:49:57;8.84;67.32
66373;SHT30;53168;51.146;17.120;2023-05-27T02:52:32;8.82;67.47
66373;SHT30;53168;51.146;17.120;2023-05-27T02:55:08;8.80;67.65
66373;SHT30;53168;51.146;17.120;2023-05-27T02:57:42;8.77;67.78
66373;SHT30;53168;51.146;17.120;2023-05-27T03:00:18;8.75;67.83
66373;SHT30;53168;51.146;17.120;2023-05-27T03:02:52;8.76;67.88
66373;SHT30;53168;51.146;17.120;2023-05-27T03:05:36;8.73;68.13
66373;SHT30;53168;51.146;17.120;2023-05-27T03:08:14;8.74;68.22
66373;SHT30;53168;51.146;17.120;2023-05-27T03:10:52;8.74;68.32
66373;SHT30;53168;51.146;17.120;2023-05-27T03:13:30;8.75;68.49
66373;SHT30;53168;51.146;17.120;2023-05-27T03:16:05;8.73;68.49
66373;SHT30;53168;51.146;17.120;2023-05-27T03:18:42;8.70;68.69
66373;SHT30;53168;51.146;17.120;2023-05-27T03:21:22;8.69;68.79
66373;SHT30;53168;51.146;17.120;2023-05-27T03:24:02;8.69;68.87
66373;SHT30;53168;51.146;17.120;2023-05-27T03:26:38;8.67;69.05
66373;SHT30;53168;51.146;17.120;2023-05-27T03:29:12;8.65;69.05
66373;SHT30;53168;51.146;17.120;2023-05-27T03:31:50;8.65;69.16
66373;SHT30;53168;51.146;17.120;2023-05-27T03:34:30;8.64;69.19
66373;SHT30;53168;51.146;17.120;2023-05-27T03:37:09;8.64;69.10
66373;SHT30;53168;51.146;17.120;2023-05-27T03:43:22;8.74;69.19
66373;SHT30;53168;51.146;17.120;2023-05-27T03:45:56;8.74;69.18
66373;SHT30;53168;51.146;17.120;2023-05-27T03:48:30;8.72;69.50
66373;SHT30;53168;51.146;17.120;2023-05-27T03:51:05;8.70;69.35
66373;SHT30;53168;51.146;17.120;2023-05-27T03:53:38;8.72;69.29
66373;SHT30;53168;51.146;17.120;2023-05-27T03:56:15;8.76;69.18
66373;SHT30;53168;51.146;17.120;2023-05-27T03:58:52;8.77;69.25
66373;SHT30;53168;51.146;17.120;2023-05-27T04:01:27;8.80;69.51
66373;SHT30;53168;51.146;17.120;2023-05-27T04:04:01;8.83;69.36
66373;SHT30;53168;51.146;17.120;2023-05-27T04:06:35;8.88;69.56
66373;SHT30;53168;51.146;17.120;2023-05-27T04:09:09;8.90;69.73
66373;SHT30;53168;51.146;17.120;2023-05-27T04:11:43;8.91;69.58
66373;SHT30;53168;51.146;17.120;2023-05-27T04:14:17;8.96;69.40
66373;SHT30;53168;51.146;17.120;2023-05-27T04:16:51;9.04;69.33
66373;SHT30;53168;51.146;17.120;2023-05-27T04:19:25;9.11;69.18
66373;SHT30;53168;51.146;17.120;2023-05-27T04:21:59;9.16;69.23
66373;SHT30;53168;51.146;17.120;2023-05-27T04:24:35;9.25;69.24
66373;SHT30;53168;51.146;17.120;2023-05-27T04:27:21;9.36;69.08
66373;SHT30;53168;51.146;17.120;2023-05-27T04:29:56;9.42;68.94
66373;SHT30;53168;51.146;17.120;2023-05-27T04:32:30;9.47;68.98
66373;SHT30;53168;51.146;17.120;2023-05-27T04:35:12;9.54;68.89
66373;SHT30;53168;51.146;17.120;2023-05-27T04:37:47;9.64;68.84
66373;SHT30;53168;51.146;17.120;2023-05-27T04:40:30;9.73;68.82
66373;SHT30;53168;51.146;17.120;2023-05-27T04:43:24;9.81;68.83
66373;SHT30;53168;51.146;17.120;2023-05-27T04:46:01;9.86;68.96
66373;SHT30;53168;51.146;17.120;2023-05-27T04:48:35;9.92;68.84
66373;SHT30;53168;51.146;17.120;2023-05-27T04:51:10;9.98;68.87
66373;SHT30;53168;51.146;17.120;2023-05-27T04:53:48;10.05;68.71
66373;SHT30;53168;51.146;17.120;2023-05-27T04:56:29;10.13;68.66
66373;SHT30;53168;51.146;17.120;2023-05-27T04:59:04;10.21;68.51
66373;SHT30;53168;51.146;17.120;2023-05-27T05:01:40;10.31;68.46
66373;SHT30;53168;51.146;17.120;2023-05-27T05:04:48;10.40;68.40
66373;SHT30;53168;51.146;17.120;2023-05-27T05:07:22;10.49;68.37
66373;SHT30;53168;51.146;17.120;2023-05-27T05:09:58;10.56;68.27
66373;SHT30;53168;51.146;17.120;2023-05-27T05:12:38;10.66;68.20
66373;SHT30;53168;51.146;17.120;2023-05-27T05:15:13;10.78;68.09
66373;SHT30;53168;51.146;17.120;2023-05-27T05:17:47;10.86;68.00
66373;SHT30;53168;51.146;17.120;2023-05-27T05:20:25;10.94;67.81
66373;SHT30;53168;51.146;17.120;2023-05-27T05:22:59;11.01;67.60
66373;SHT30;53168;51.146;17.120;2023-05-27T05:25:34;11.12;67.51
66373;SHT30;53168;51.146;17.120;2023-05-27T05:28:11;11.22;67.45
66373;SHT30;53168;51.146;17.120;2023-05-27T05:30:47;11.36;67.24
66373;SHT30;53168;51.146;17.120;2023-05-27T05:33:22;11.47;66.98
66373;SHT30;53168;51.146;17.120;2023-05-27T05:35:58;11.56;66.53
66373;SHT30;53168;51.146;17.120;2023-05-27T05:38:40;11.66;66.26
66373;SHT30;53168;51.146;17.120;2023-05-27T05:41:14;11.79;66.24
66373;SHT30;53168;51.146;17.120;2023-05-27T05:43:49;11.90;65.94
66373;SHT30;53168;51.146;17.120;2023-05-27T05:46:24;12.00;65.79
66373;SHT30;53168;51.146;17.120;2023-05-27T05:48:59;12.11;65.58
66373;SHT30;53168;51.146;17.120;2023-05-27T05:51:38;12.18;65.06
66373;SHT30;53168;51.146;17.120;2023-05-27T05:54:12;12.26;65.12
66373;SHT30;53168;51.146;17.120;2023-05-27T05:56:48;12.39;64.65
66373;SHT30;53168;51.146;17.120;2023-05-27T05:59:22;12.51;63.67
66373;SHT30;53168;51.146;17.120;2023-05-27T06:01:56;12.61;63.38
66373;SHT30;53168;51.146;17.120;2023-05-27T06:04:35;12.77;63.52
66373;SHT30;53168;51.146;17.120;2023-05-27T06:07:16;12.91;62.52
66373;SHT30;53168;51.146;17.120;2023-05-27T06:10:00;12.99;61.86
66373;SHT30;53168;51.146;17.120;2023-05-27T06:12:49;13.09;61.07
66373;SHT30;53168;51.146;17.120;2023-05-27T06:15:31;13.17;60.72
66373;SHT30;53168;51.146;17.120;2023-05-27T06:18:06;13.27;60.70
66373;SHT30;53168;51.146;17.120;2023-05-27T06:20:40;13.39;60.89
66373;SHT30;53168;51.146;17.120;2023-05-27T06:23:14;13.51;60.42
66373;SHT30;53168;51.146;17.120;2023-05-27T06:26:31;13.62;59.34
66373;SHT30;53168;51.146;17.120;2023-05-27T06:29:06;13.66;59.03
66373;SHT30;53168;51.146;17.120;2023-05-27T06:31:44;13.70;58.75
66373;SHT30;53168;51.146;17.120;2023-05-27T06:34:20;13.75;58.50
66373;SHT30;53168;51.146;17.120;2023-05-27T06:36:53;13.85;58.23
66373;SHT30;53168;51.146;17.120;2023-05-27T06:39:32;13.94;58.28
66373;SHT30;53168;51.146;17.120;2023-05-27T06:42:18;14.05;57.83
66373;SHT30;53168;51.146;17.120;2023-05-27T06:45:19;14.10;57.61
66373;SHT30;53168;51.146;17.120;2023-05-27T06:48:00;14.18;56.99
66373;SHT30;53168;51.146;17.120;2023-05-27T06:50:48;14.29;57.08
66373;SHT30;53168;51.146;17.120;2023-05-27T06:53:24;14.36;56.22
66373;SHT30;53168;51.146;17.120;2023-05-27T06:56:11;14.43;56.25
66373;SHT30;53168;51.146;17.120;2023-05-27T06:59:12;14.51;56.25
66373;SHT30;53168;51.146;17.120;2023-05-27T07:01:53;14.62;55.98
66373;SHT30;53168;51.146;17.120;2023-05-27T07:04:37;14.76;55.88
66373;SHT30;53168;51.146;17.120;2023-05-27T07:07:13;14.90;55.48
66373;SHT30;53168;51.146;17.120;2023-05-27T07:09:46;14.99;55.35
66373;SHT30;53168;51.146;17.120;2023-05-27T07:12:24;15.09;55.10
66373;SHT30;53168;51.146;17.120;2023-05-27T07:15:10;15.18;55.20
66373;SHT30;53168;51.146;17.120;2023-05-27T07:18:09;15.26;55.08
66373;SHT30;53168;51.146;17.120;2023-05-27T07:20:58;15.41;54.62
66373;SHT30;53168;51.146;17.120;2023-05-27T07:23:45;15.50;54.20
66373;SHT30;53168;51.146;17.120;2023-05-27T07:26:28;15.60;54.32
66373;SHT30;53168;51.146;17.120;2023-05-27T07:29:14;15.68;52.63
66373;SHT30;53168;51.146;17.120;2023-05-27T07:31:58;15.68;51.56
66373;SHT30;53168;51.146;17.120;2023-05-27T07:34:34;15.70;51.72
66373;SHT30;53168;51.146;17.120;2023-05-27T07:37:09;15.76;51.98
66373;SHT30;53168;51.146;17.120;2023-05-27T07:39:46;15.79;51.57
66373;SHT30;53168;51.146;17.120;2023-05-27T07:42:27;15.85;51.64
66373;SHT30;53168;51.146;17.120;2023-05-27T07:45:05;15.97;50.53
66373;SHT30;53168;51.146;17.120;2023-05-27T07:47:40;16.06;50.04
66373;SHT30;53168;51.146;17.120;2023-05-27T07:50:16;16.13;49.89
66373;SHT30;53168;51.146;17.120;2023-05-27T07:53:07;16.16;50.14
66373;SHT30;53168;51.146;17.120;2023-05-27T07:55:43;16.20;48.56
66373;SHT30;53168;51.146;17.120;2023-05-27T07:58:17;16.23;49.02
66373;SHT30;53168;51.146;17.120;2023-05-27T08:01:03;16.29;49.55
66373;SHT30;53168;51.146;17.120;2023-05-27T08:03:37;16.34;48.87
66373;SHT30;53168;51.146;17.120;2023-05-27T08:06:20;16.40;47.30
66373;SHT30;53168;51.146;17.120;2023-05-27T08:09:02;16.48;48.08
66373;SHT30;53168;51.146;17.120;2023-05-27T08:12:07;16.58;48.40
66373;SHT30;53168;51.146;17.120;2023-05-27T08:14:59;16.64;48.04
66373;SHT30;53168;51.146;17.120;2023-05-27T08:17:56;16.77;48.50
66373;SHT30;53168;51.146;17.120;2023-05-27T08:20:57;16.93;48.61
66373;SHT30;53168;51.146;17.120;2023-05-27T08:24:30;17.00;47.17
66373;SHT30;53168;51.146;17.120;2023-05-27T08:27:44;17.11;47.79
66373;SHT30;53168;51.146;17.120;2023-05-27T08:31:16;17.28;47.39
66373;SHT30;53168;51.146;17.120;2023-05-27T08:34:01;17.31;47.04
66373;SHT30;53168;51.146;17.120;2023-05-27T08:36:37;17.31;46.33
66373;SHT30;53168;51.146;17.120;2023-05-27T08:39:11;17.34;46.45
66373;SHT30;53168;51.146;17.120;2023-05-27T08:41:54;17.42;46.90
66373;SHT30;53168;51.146;17.120;2023-05-27T08:44:29;17.56;46.85
66373;SHT30;53168;51.146;17.120;2023-05-27T08:47:07;17.66;47.36
66373;SHT30;53168;51.146;17.120;2023-05-27T08:49:42;17.79;46.67
66373;SHT30;53168;51.146;17.120;2023-05-27T08:52:21;17.88;46.04
66373;SHT30;53168;51.146;17.120;2023-05-27T08:55:18;17.91;45.63
66373;SHT30;53168;51.146;17.120;2023-05-27T08:57:58;17.88;45.15
66373;SHT30;53168;51.146;17.120;2023-05-27T09:00:40;17.83;46.02
66373;SHT30;53168;51.146;17.120;2023-05-27T09:03:20;17.89;46.23
66373;SHT30;53168;51.146;17.120;2023-05-27T09:05:57;17.95;45.70
66373;SHT30;53168;51.146;17.120;2023-05-27T09:08:32;17.99;45.93
66373;SHT30;53168;51.146;17.120;2023-05-27T09:11:31;18.08;45.75
66373;SHT30;53168;51.146;17.120;2023-05-27T09:14:07;18.20;45.75
66373;SHT30;53168;51.146;17.120;2023-05-27T09:16:44;18.32;45.40
66373;SHT30;53168;51.146;17.120;2023-05-27T09:19:21;18.39;45.05
66373;SHT30;53168;51.146;17.120;2023-05-27T09:22:06;18.48;44.59
66373;SHT30;53168;51.146;17.120;2023-05-27T09:24:46;18.57;44.65
66373;SHT30;53168;51.146;17.120;2023-05-27T09:27:25;18.63;45.07
66373;SHT30;53168;51.146;17.120;2023-05-27T09:30:08;18.71;45.10
66373;SHT30;53168;51.146;17.120;2023-05-27T09:32:44;18.79;44.51
66373;SHT30;53168;51.146;17.120;2023-05-27T09:38:29;18.89;44.05
66373;SHT30;53168;51.146;17.120;2023-05-27T09:41:25;18.98;44.34
66373;SHT30;53168;51.146;17.120;2023-05-27T09:44:01;19.12;44.58
66373;SHT30;53168;51.146;17.120;2023-05-27T09:46:37;19.20;43.78
66373;SHT30;53168;51.146;17.120;2023-05-27T09:49:19;19.30;43.19
66373;SHT30;53168;51.146;17.120;2023-05-27T09:52:18;19.42;42.87
66373;SHT30;53168;51.146;17.120;2023-05-27T09:55:56;19.56;43.13
66373;SHT30;53168;51.146;17.120;2023-05-27T09:58:58;19.61;41.76
66373;SHT30;53168;51.146;17.120;2023-05-27T10:01:39;19.63;40.90
66373;SHT30;53168;51.146;17.120;2023-05-27T10:04:18;19.70;41.01
66373;SHT30;53168;51.146;17.120;2023-05-27T10:06:53;19.79;40.37
66373;SHT30;53168;51.146;17.120;2023-05-27T10:09:29;19.86;41.19
66373;SHT30;53168;51.146;17.120;2023-05-27T11:22:34;22.10;33.68
66373;SHT30;53168;51.146;17.120;2023-05-27T11:25:09;22.42;32.71
66373;SHT30;53168;51.146;17.120;2023-05-27T11:27:43;22.69;33.59
66373;SHT30;53168;51.146;17.120;2023-05-27T11:30:18;22.96;33.05
66373;SHT30;53168;51.146;17.120;2023-05-27T11:33:03;23.23;34.09
66373;SHT30;53168;51.146;17.120;2023-05-27T11:35:50;23.61;33.48
66373;SHT30;53168;51.146;17.120;2023-05-27T11:38:25;23.76;32.74
66373;SHT30;53168;51.146;17.120;2023-05-27T11:41:08;23.87;31.01
66373;SHT30;53168;51.146;17.120;2023-05-27T11:43:54;23.93;31.33
66373;SHT30;53168;51.146;17.120;2023-05-27T11:46:36;24.18;32.05
66373;SHT30;53168;51.146;17.120;2023-05-27T11:49:15;24.47;31.86
66373;SHT30;53168;51.146;17.120;2023-05-27T11:51:54;24.70;32.45
66373;SHT30;53168;51.146;17.120;2023-05-27T11:54:29;25.16;32.28
66373;SHT30;53168;51.146;17.120;2023-05-27T11:57:17;25.37;31.18
66373;SHT30;53168;51.146;17.120;2023-05-27T11:59:54;25.42;30.39
66373;SHT30;53168;51.146;17.120;2023-05-27T12:02:35;25.53;30.52
66373;SHT30;53168;51.146;17.120;2023-05-27T12:05:10;25.68;29.90
66373;SHT30;53168;51.146;17.120;2023-05-27T12:08:03;25.64;29.21
66373;SHT30;53168;51.146;17.120;2023-05-27T12:10:37;25.67;29.66
66373;SHT30;53168;51.146;17.120;2023-05-27T12:13:14;25.61;29.37
66373;SHT30;53168;51.146;17.120;2023-05-27T12:15:51;25.64;29.45
66373;SHT30;53168;51.146;17.120;2023-05-27T12:18:29;25.84;30.30
66373;SHT30;53168;51.146;17.120;2023-05-27T12:21:48;26.08;29.10
66373;SHT30;53168;51.146;17.120;2023-05-27T12:24:26;26.14;29.17
66373;SHT30;53168;51.146;17.120;2023-05-27T12:27:02;26.34;29.67
66373;SHT30;53168;51.146;17.120;2023-05-27T12:29:45;26.49;28.67
66373;SHT30;53168;51.146;17.120;2023-05-27T12:33:03;26.45;27.92
66373;SHT30;53168;51.146;17.120;2023-05-27T12:35:44;26.37;28.63
66373;SHT30;53168;51.146;17.120;2023-05-27T12:38:40;26.51;28.41
66373;SHT30;53168;51.146;17.120;2023-05-27T12:41:17;26.64;27.51
66373;SHT30;53168;51.146;17.120;2023-05-27T12:45:08;26.71;26.81
66373;SHT30;53168;51.146;17.120;2023-05-27T12:48:06;26.64;27.09
66373;SHT30;53168;51.146;17.120;2023-05-27T12:50:41;26.61;27.11
66373;SHT30;53168;51.146;17.120;2023-05-27T12:53:24;26.61;27.36
66373;SHT30;53168;51.146;17.120;2023-05-27T12:56:02;26.69;27.65
66373;SHT30;53168;51.146;17.120;2023-05-27T12:58:50;26.77;27.54
66373;SHT30;53168;51.146;17.120;2023-05-27T13:01:25;26.74;27.84
66373;SHT30;53168;51.146;17.120;2023-05-27T13:04:01;26.77;27.31
66373;SHT30;53168;51.146;17.120;2023-05-27T13:06:37;26.60;27.02
66373;SHT30;53168;51.146;17.120;2023-05-27T13:09:12;26.36;27.28
66373;SHT30;53168;51.146;17.120;2023-05-27T13:11:47;26.33;27.52
66373;SHT30;53168;51.146;17.120;2023-05-27T13:14:21;26.53;27.79
66373;SHT30;53168;51.146;17.120;2023-05-27T13:16:55;26.82;27.87
66373;SHT30;53168;51.146;17.120;2023-05-27T13:19:29;26.95;26.17
66373;SHT30;53168;51.146;17.120;2023-05-27T13:22:29;26.96;26.24
66373;SHT30;53168;51.146;17.120;2023-05-27T13:25:04;27.11;26.36
66373;SHT30;53168;51.146;17.120;2023-05-27T13:27:39;27.18;25.83
66373;SHT30;53168;51.146;17.120;2023-05-27T13:30:17;27.22;26.31
66373;SHT30;53168;51.146;17.120;2023-05-27T13:32:51;27.39;26.46
66373;SHT30;53168;51.146;17.120;2023-05-27T13:35:26;27.58;26.26
66373;SHT30;53168;51.146;17.120;2023-05-27T13:38:00;27.59;25.52
66373;SHT30;53168;51.146;17.120;2023-05-27T13:40:34;27.55;25.65
66373;SHT30;53168;51.146;17.120;2023-05-27T13:43:08;27.74;26.00
66373;SHT30;53168;51.146;17.120;2023-05-27T13:45:42;27.82;25.51
66373;SHT30;53168;51.146;17.120;2023-05-27T13:48:16;27.74;25.79
66373;SHT30;53168;51.146;17.120;2023-05-27T13:50:51;27.82;25.88
66373;SHT30;53168;51.146;17.120;2023-05-27T13:53:25;28.01;25.34
66373;SHT30;53168;51.146;17.120;2023-05-27T13:55:59;28.09;25.17
66373;SHT30;53168;51.146;17.120;2023-05-27T13:58:34;28.18;25.03
66373;SHT30;53168;51.146;17.120;2023-05-27T14:01:08;28.22;24.70
66373;SHT30;53168;51.146;17.120;2023-05-27T14:03:42;28.32;25.13
66373;SHT30;53168;51.146;17.120;2023-05-27T14:06:16;28.35;25.31
66373;SHT30;53168;51.146;17.120;2023-05-27T14:08:50;28.40;25.01
66373;SHT30;53168;51.146;17.120;2023-05-27T14:11:24;28.54;24.93
66373;SHT30;53168;51.146;17.120;2023-05-27T14:13:59;28.79;25.14
66373;SHT30;53168;51.146;17.120;2023-05-27T14:16:33;29.24;23.98
66373;SHT30;53168;51.146;17.120;2023-05-27T14:19:07;29.34;24.49
66373;SHT30;53168;51.146;17.120;2023-05-27T14:21:42;29.31;23.52
66373;SHT30;53168;51.146;17.120;2023-05-27T14:24:23;29.21;23.71
66373;SHT30;53168;51.146;17.120;2023-05-27T14:27:01;29.18;23.63
66373;SHT30;53168;51.146;17.120;2023-05-27T14:30:17;29.21;22.29
66373;SHT30;53168;51.146;17.120;2023-05-27T14:33:21;28.91;22.64
66373;SHT30;53168;51.146;17.120;2023-05-27T14:40:24;28.57;23.35
66373;SHT30;53168;51.146;17.120;2023-05-27T14:43:07;28.62;23.24
66373;SHT30;53168;51.146;17.120;2023-05-27T14:49:17;28.59;23.05
66373;SHT30;53168;51.146;17.120;2023-05-27T14:52:00;28.62;23.13
66373;SHT30;53168;51.146;17.120;2023-05-27T14:54:42;28.81;23.34
66373;SHT30;53168;51.146;17.120;2023-05-27T14:57:40;29.13;23.76
66373;SHT30;53168;51.146;17.120;2023-05-27T15:00:30;29.24;23.10
66373;SHT30;53168;51.146;17.120;2023-05-27T15:03:05;29.12;22.96
66373;SHT30;53168;51.146;17.120;2023-05-27T15:05:49;29.02;23.16
66373;SHT30;53168;51.146;17.120;2023-05-27T15:09:04;29.12;23.16
66373;SHT30;53168;51.146;17.120;2023-05-27T15:11:41;29.23;23.21
66373;SHT30;53168;51.146;17.120;2023-05-27T15:21:26;29.49;21.88
66373;SHT30;53168;51.146;17.120;2023-05-27T15:24:34;29.51;21.82
66373;SHT30;53168;51.146;17.120;2023-05-27T15:27:50;29.64;22.26
66373;SHT30;53168;51.146;17.120;2023-05-27T15:31:04;29.59;22.47
66373;SHT30;53168;51.146;17.120;2023-05-27T15:37:36;29.65;22.27
66373;SHT30;53168;51.146;17.120;2023-05-27T15:41:33;29.38;22.56
66373;SHT30;53168;51.146;17.120;2023-05-27T15:48:23;29.50;22.22
66373;SHT30;53168;51.146;17.120;2023-05-27T15:51:45;29.27;21.98
66373;SHT30;53168;51.146;17.120;2023-05-27T15:54:47;29.28;21.89
66373;SHT30;53168;51.146;17.120;2023-05-27T15:58:00;29.20;21.93
66373;SHT30;53168;51.146;17.120;2023-05-27T16:00:35;29.01;21.98
66373;SHT30;53168;51.146;17.120;2023-05-27T16:03:42;28.85;22.33
66373;SHT30;53168;51.146;17.120;2023-05-27T16:07:28;28.67;22.64
66373;SHT30;53168;51.146;17.120;2023-05-27T16:10:11;28.57;22.59
66373;SHT30;53168;51.146;17.120;2023-05-27T16:12:48;28.52;22.84
66373;SHT30;53168;51.146;17.120;2023-05-27T16:15:42;28.44;22.62
66373;SHT30;53168;51.146;17.120;2023-05-27T16:18:54;28.40;22.56
66373;SHT30;53168;51.146;17.120;2023-05-27T16:25:41;28.23;22.84
66373;SHT30;53168;51.146;17.120;2023-05-27T16:28:15;28.19;23.04
66373;SHT30;53168;51.146;17.120;2023-05-27T16:30:49;28.16;22.86
66373;SHT30;53168;51.146;17.120;2023-05-27T16:33:24;28.07;22.74
66373;SHT30;53168;51.146;17.120;2023-05-27T16:36:00;27.90;22.96
66373;SHT30;53168;51.146;17.120;2023-05-27T16:38:34;27.87;23.02
66373;SHT30;53168;51.146;17.120;2023-05-27T16:41:08;27.76;22.89
66373;SHT30;53168;51.146;17.120;2023-05-27T16:43:42;27.59;23.08
66373;SHT30;53168;51.146;17.120;2023-05-27T16:46:16;27.53;22.94
66373;SHT30;53168;51.146;17.120;2023-05-27T16:48:50;27.56;22.98
66373;SHT30;53168;51.146;17.120;2023-05-27T16:51:25;27.34;23.18
66373;SHT30;53168;51.146;17.120;2023-05-27T16:53:59;27.14;23.49
66373;SHT30;53168;51.146;17.120;2023-05-27T16:56:35;27.08;23.57
66373;SHT30;53168;51.146;17.120;2023-05-27T16:59:12;26.95;23.58
66373;SHT30;53168;51.146;17.120;2023-05-27T17:01:52;26.86;23.78
66373;SHT30;53168;51.146;17.120;2023-05-27T17:04:47;26.63;23.90
66373;SHT30;53168;51.146;17.120;2023-05-27T17:11:27;26.21;24.31
66373;SHT30;53168;51.146;17.120;2023-05-27T17:21:48;23.23;25.99
66373;SHT30;53168;51.146;17.120;2023-05-27T17:31:23;21.58;27.59
66373;SHT30;53168;51.146;17.120;2023-05-27T17:34:52;21.14;28.01
66373;SHT30;53168;51.146;17.120;2023-05-27T17:37:27;20.83;28.41
66373;SHT30;53168;51.146;17.120;2023-05-27T17:40:16;20.53;28.72
66373;SHT30;53168;51.146;17.120;2023-05-27T17:42:55;20.30;29.26
66373;SHT30;53168;51.146;17.120;2023-05-27T17:45:29;20.07;29.69
66373;SHT30;53168;51.146;17.120;2023-05-27T17:48:07;19.89;29.90
66373;SHT30;53168;51.146;17.120;2023-05-27T17:50:43;19.70;30.37
66373;SHT30;53168;51.146;17.120;2023-05-27T17:53:19;19.51;30.45
66373;SHT30;53168;51.146;17.120;2023-05-27T17:55:53;19.34;30.88
66373;SHT30;53168;51.146;17.120;2023-05-27T17:58:28;19.18;31.09
66373;SHT30;53168;51.146;17.120;2023-05-27T18:01:02;19.02;31.32
66373;SHT30;53168;51.146;17.120;2023-05-27T18:04:03;18.85;31.85
66373;SHT30;53168;51.146;17.120;2023-05-27T18:06:39;18.70;31.99
66373;SHT30;53168;51.146;17.120;2023-05-27T18:09:14;18.56;32.47
66373;SHT30;53168;51.146;17.120;2023-05-27T18:11:48;18.42;32.60
66373;SHT30;53168;51.146;17.120;2023-05-27T18:14:40;18.27;32.91
66373;SHT30;53168;51.146;17.120;2023-05-27T18:17:14;18.12;33.20
66373;SHT30;53168;51.146;17.120;2023-05-27T18:19:49;17.97;33.42
66373;SHT30;53168;51.146;17.120;2023-05-27T18:22:24;17.83;33.66
66373;SHT30;53168;51.146;17.120;2023-05-27T18:24:58;17.69;33.91
66373;SHT30;53168;51.146;17.120;2023-05-27T18:27:50;17.55;34.12
66373;SHT30;53168;51.146;17.120;2023-05-27T18:30:54;17.36;34.48
66373;SHT30;53168;51.146;17.120;2023-05-27T18:33:30;17.21;34.84
66373;SHT30;53168;51.146;17.120;2023-05-27T18:36:06;17.07;34.99
66373;SHT30;53168;51.146;17.120;2023-05-27T18:46:38;16.48;36.03
66373;SHT30;53168;51.146;17.120;2023-05-27T18:49:13;16.29;36.37
66373;SHT30;53168;51.146;17.120;2023-05-27T18:51:56;16.13;36.75
66373;SHT30;53168;51.146;17.120;2023-05-27T18:54:31;15.98;37.06
66373;SHT30;53168;51.146;17.120;2023-05-27T18:57:34;15.81;37.36
66373;SHT30;53168;51.146;17.120;2023-05-27T19:00:17;15.64;37.72
66373;SHT30;53168;51.146;17.120;2023-05-27T19:02:53;15.49;38.03
66373;SHT30;53168;51.146;17.120;2023-05-27T19:05:32;15.35;38.32
66373;SHT30;53168;51.146;17.120;2023-05-27T19:08:07;15.22;38.66
66373;SHT30;53168;51.146;17.120;2023-05-27T19:10:42;15.09;38.87
66373;SHT30;53168;51.146;17.120;2023-05-27T19:13:16;14.98;39.45
66373;SHT30;53168;51.146;17.120;2023-05-27T19:15:51;14.87;39.74
66373;SHT30;53168;51.146;17.120;2023-05-27T19:18:25;14.74;40.02
66373;SHT30;53168;51.146;17.120;2023-05-27T19:21:03;14.65;40.40
66373;SHT30;53168;51.146;17.120;2023-05-27T19:23:40;14.55;40.69
66373;SHT30;53168;51.146;17.120;2023-05-27T19:26:14;14.47;40.78
66373;SHT30;53168;51.146;17.120;2023-05-27T19:28:49;14.39;41.28
66373;SHT30;53168;51.146;17.120;2023-05-27T19:31:25;14.31;41.62
66373;SHT30;53168;51.146;17.120;2023-05-27T19:34:05;14.26;41.54